createdAt,value
2023-01-10T00:01:29.147Z,99175.94
2023-01-10T00:03:56.077Z,99177.66
2023-01-10T00:06:22.794Z,99173.22
2023-01-10T00:08:49.745Z,99178.47
2023-01-10T00:11:35.353Z,99180.38
2023-01-10T00:14:02.295Z,99172.41
2023-01-10T00:16:29.448Z,99171.59
2023-01-10T00:18:56.392Z,99164.63
2023-01-10T00:21:23.224Z,99175.06
2023-01-10T00:23:50.165Z,99177.72
2023-01-10T00:26:17.106Z,99180.28
2023-01-10T00:28:44.462Z,99180.28
2023-01-10T00:31:12.423Z,99173.38
2023-01-10T00:33:39.607Z,99170.72
2023-01-10T00:36:07.848Z,99171.56
2023-01-10T00:38:35.424Z,99189.81
2023-01-10T00:41:02.873Z,99186.37
2023-01-10T00:43:48.147Z,99191.63
2023-01-10T00:46:15.008Z,99180.28
2023-01-10T00:48:42.228Z,99191.56
2023-01-10T00:51:09.109Z,99195.13
2023-01-10T00:53:35.916Z,99173.28
2023-01-10T00:56:04.159Z,99195.09
2023-01-10T00:58:31.353Z,99197.66
2023-01-10T01:00:58.223Z,99202.03
2023-01-10T01:03:25.279Z,99194.16
2023-01-10T01:05:52.732Z,99208.03
2023-01-10T01:08:20.055Z,99193.28
2023-01-10T01:10:46.830Z,99200.31
2023-01-10T01:13:20.800Z,99209.72
2023-01-10T01:15:48.615Z,99207.13
2023-01-10T01:18:18.321Z,99213.31
2023-01-10T01:20:48.141Z,99215.75
2023-01-10T01:23:15.576Z,99224.56
2023-01-10T01:25:42.549Z,99209.72
2023-01-10T01:28:10.769Z,99224.66
2023-01-10T01:30:37.861Z,99222.91
2023-01-10T01:33:04.706Z,99221.22
2023-01-10T01:35:33.702Z,99224.69
2023-01-10T01:38:00.494Z,99229.03
2023-01-10T01:40:27.650Z,99231.53
2023-01-10T01:42:56.283Z,99207.34
2023-01-10T01:45:23.422Z,99235.88
2023-01-10T01:47:58.405Z,99221.19
2023-01-10T01:50:28.328Z,99222.00
2023-01-10T01:52:57.453Z,99213.38
2023-01-10T01:55:25.969Z,99222.13
2023-01-10T01:57:54.603Z,99228.94
2023-01-10T02:00:21.989Z,99231.63
2023-01-10T02:03:03.067Z,99232.53
2023-01-10T02:05:31.143Z,99193.41
2023-01-10T02:07:59.506Z,99228.16
2023-01-10T02:10:30.814Z,99216.00
2023-01-10T02:13:00.406Z,99219.44
2023-01-10T02:15:27.711Z,99210.78
2023-01-10T02:20:25.455Z,99215.16
2023-01-10T02:23:01.262Z,99214.25
2023-01-10T02:25:27.988Z,99221.22
2023-01-10T02:28:14.985Z,99218.63
2023-01-10T02:31:00.501Z,99240.34
2023-01-10T02:33:31.182Z,99246.50
2023-01-10T02:35:58.062Z,99230.91
2023-01-10T02:38:43.724Z,99247.34
2023-01-10T02:41:22.801Z,99235.19
2023-01-10T02:43:59.354Z,99262.13
2023-01-10T02:46:29.096Z,99238.59
2023-01-10T02:48:56.142Z,99225.63
2023-01-10T02:51:24.592Z,99238.63
2023-01-10T02:53:57.293Z,99245.69
2023-01-10T02:56:24.226Z,99253.44
2023-01-10T02:59:06.139Z,99209.13
2023-01-10T03:01:45.224Z,99225.72
2023-01-10T03:04:24.695Z,99230.06
2023-01-10T03:07:16.140Z,99226.56
2023-01-10T03:09:42.822Z,99242.16
2023-01-10T03:12:25.023Z,99237.91
2023-01-10T03:14:53.012Z,99236.97
2023-01-10T03:17:20.767Z,99245.66
2023-01-10T03:19:50.476Z,99250.00
2023-01-10T03:22:17.659Z,99230.81
2023-01-10T03:24:48.263Z,99222.91
2023-01-10T03:27:38.958Z,99237.66
2023-01-10T03:30:24.177Z,99229.91
2023-01-10T03:32:51.092Z,99235.09
2023-01-10T03:35:20.374Z,99236.84
2023-01-10T03:37:47.209Z,99244.75
2023-01-10T03:40:22.777Z,99252.59
2023-01-10T03:43:14.332Z,99238.69
2023-01-10T03:45:44.386Z,99249.91
2023-01-10T03:48:12.514Z,99242.97
2023-01-10T03:50:40.658Z,99248.28
2023-01-10T03:53:07.567Z,99246.34
2023-01-10T03:55:35.488Z,99259.53
2023-01-10T03:58:02.269Z,99275.97
2023-01-10T04:00:29.024Z,99256.84
2023-01-10T04:02:57.841Z,99263.03
2023-01-10T04:05:24.588Z,99278.66
2023-01-10T04:07:51.271Z,99288.16
2023-01-10T04:10:18.034Z,99294.28
2023-01-10T04:12:44.765Z,99289.88
2023-01-10T04:15:11.674Z,99302.97
2023-01-10T04:17:38.402Z,99295.13
2023-01-10T04:20:05.411Z,99311.66
2023-01-10T04:22:32.199Z,99296.03
2023-01-10T04:24:58.903Z,99315.94
2023-01-10T04:27:25.684Z,99313.41
2023-01-10T04:29:53.472Z,99292.50
2023-01-10T04:32:20.185Z,99301.19
2023-01-10T04:34:46.932Z,99308.09
2023-01-10T04:37:13.621Z,99303.81
2023-01-10T04:39:40.449Z,99306.41
2023-01-10T04:42:07.245Z,99302.94
2023-01-10T04:44:33.982Z,99316.78
2023-01-10T04:47:00.753Z,99323.72
2023-01-10T04:49:27.463Z,99333.28
2023-01-10T04:51:54.213Z,99350.59
2023-01-10T04:54:21.602Z,99344.59
2023-01-10T04:56:48.499Z,99339.34
2023-01-10T04:59:15.364Z,99376.72
2023-01-10T05:01:42.178Z,99367.19
2023-01-10T05:04:09.087Z,99363.66
2023-01-10T05:06:36.277Z,99387.12
2023-01-10T05:09:04.254Z,99374.13
2023-01-10T05:11:31.062Z,99393.25
2023-01-10T05:13:57.776Z,99388.00
2023-01-10T05:16:25.696Z,99401.91
2023-01-10T05:18:52.644Z,99396.72
2023-01-10T05:21:19.371Z,99389.72
2023-01-10T05:23:46.162Z,99378.47
2023-01-10T05:26:14.236Z,99394.13
2023-01-10T05:28:41.469Z,99394.09
2023-01-10T05:31:13.515Z,99406.25
2023-01-10T05:33:40.355Z,99410.59
2023-01-10T05:36:07.331Z,99416.66
2023-01-10T05:38:34.412Z,99423.63
2023-01-10T05:41:01.356Z,99421.87
2023-01-10T05:43:28.557Z,99421.91
2023-01-10T05:45:55.356Z,99438.41
2023-01-10T05:48:22.487Z,99434.91
2023-01-10T05:50:52.417Z,99442.75
2023-01-10T05:53:19.341Z,99441.03
2023-01-10T05:55:55.651Z,99464.47
2023-01-10T05:58:22.369Z,99465.31
2023-01-10T06:00:49.219Z,99475.78
2023-01-10T06:03:16.234Z,99474.91
2023-01-10T06:05:43.009Z,99460.13
2023-01-10T06:08:09.878Z,99474.87
2023-01-10T06:10:36.627Z,99480.09
2023-01-10T06:13:05.191Z,99486.19
2023-01-10T06:15:32.553Z,99495.75
2023-01-10T06:17:59.287Z,99502.69
2023-01-10T06:20:26.032Z,99506.16
2023-01-10T06:22:52.889Z,99505.28
2023-01-10T06:25:19.621Z,99522.69
2023-01-10T06:27:46.481Z,99520.94
2023-01-10T06:30:15.223Z,99514.88
2023-01-10T06:32:42.718Z,99526.13
2023-01-10T06:35:10.039Z,99533.12
2023-01-10T06:37:37.032Z,99532.25
2023-01-10T06:40:04.575Z,99537.44
2023-01-10T06:42:31.689Z,99544.41
2023-01-10T06:45:04.872Z,99557.47
2023-01-10T06:47:36.991Z,99560.91
2023-01-10T06:50:05.355Z,99564.38
2023-01-10T06:52:32.390Z,99567.84
2023-01-10T06:54:59.275Z,99559.16
2023-01-10T06:57:26.050Z,99573.09
2023-01-10T06:59:52.792Z,99585.28
2023-01-10T07:02:19.871Z,99585.22
2023-01-10T07:04:48.611Z,99600.88
2023-01-10T07:07:15.441Z,99602.59
2023-01-10T07:09:42.195Z,99599.16
2023-01-10T07:12:08.973Z,99610.50
2023-01-10T07:14:35.683Z,99636.53
2023-01-10T07:17:02.448Z,99631.34
2023-01-10T07:19:29.234Z,99631.28
2023-01-10T07:21:56.114Z,99635.66
2023-01-10T07:24:22.922Z,99647.00
2023-01-10T07:26:49.692Z,99640.03
2023-01-10T07:29:16.411Z,99647.78
2023-01-10T07:31:43.431Z,99642.66
2023-01-10T07:34:10.201Z,99661.75
2023-01-10T07:36:39.401Z,99649.59
2023-01-10T07:39:06.566Z,99667.88
2023-01-10T07:41:33.273Z,99665.25
2023-01-10T07:44:00.199Z,99677.41
2023-01-10T07:46:27.277Z,99669.53
2023-01-10T07:48:54.117Z,99700.00
2023-01-10T07:51:20.926Z,99683.50
2023-01-10T07:53:47.813Z,99695.66
2023-01-10T07:56:14.642Z,99695.69
2023-01-10T07:58:41.613Z,99699.16
2023-01-10T08:01:08.505Z,99717.44
2023-01-10T08:03:36.065Z,99700.03
2023-01-10T08:06:07.098Z,99715.66
2023-01-10T08:08:34.780Z,99717.44
2023-01-10T08:11:03.012Z,99727.84
2023-01-10T08:13:30.530Z,99728.75
2023-01-10T08:15:57.760Z,99752.16
2023-01-10T08:18:25.447Z,99749.59
2023-01-10T08:20:53.085Z,99757.34
2023-01-10T08:23:20.774Z,99764.34
2023-01-10T08:25:47.823Z,99768.72
2023-01-10T08:28:14.744Z,99766.09
2023-01-10T08:30:41.632Z,99782.59
2023-01-10T08:33:09.250Z,99775.66
2023-01-10T08:35:43.054Z,99785.25
2023-01-10T08:38:10.416Z,99789.56
2023-01-10T08:40:37.536Z,99789.63
2023-01-10T08:43:05.654Z,99804.25
2023-01-10T08:45:33.063Z,99790.50
2023-01-10T08:48:00.037Z,99804.31
2023-01-10T08:50:26.847Z,99817.28
2023-01-10T08:52:57.824Z,99810.37
2023-01-10T08:55:24.646Z,99814.88
2023-01-10T08:57:51.508Z,99823.53
2023-01-10T09:00:30.239Z,99826.97
2023-01-10T09:02:58.101Z,99839.13
2023-01-10T09:05:27.712Z,99840.94
2023-01-10T09:07:58.890Z,99829.62
2023-01-10T09:10:26.043Z,99860.88
2023-01-10T09:12:55.953Z,99848.75
2023-01-10T09:15:23.754Z,99861.81
2023-01-10T09:17:53.604Z,99854.00
2023-01-10T09:20:21.776Z,99866.13
2023-01-10T09:22:48.906Z,99872.16
2023-01-10T09:25:15.764Z,99876.56
2023-01-10T09:27:42.697Z,99893.97
2023-01-10T09:30:09.916Z,99880.94
2023-01-10T09:32:36.895Z,99893.91
2023-01-10T09:35:03.792Z,99877.44
2023-01-10T09:37:31.332Z,99898.22
2023-01-10T09:39:58.362Z,99881.78
2023-01-10T09:42:38.957Z,99894.81
2023-01-10T09:45:12.234Z,99894.81
2023-01-10T09:47:54.094Z,99899.22
2023-01-10T09:50:37.375Z,99920.06
2023-01-10T09:53:09.773Z,99913.06
2023-01-10T09:55:38.673Z,99909.66
2023-01-10T09:58:14.381Z,99905.44
2023-01-10T10:00:54.283Z,99925.28
2023-01-10T10:03:37.663Z,99929.59
2023-01-10T10:06:12.037Z,99922.72
2023-01-10T10:08:40.707Z,99940.13
2023-01-10T10:11:36.559Z,99947.06
2023-01-10T10:14:42.704Z,99929.72
2023-01-10T10:17:11.432Z,99935.72
2023-01-10T10:19:57.103Z,99939.25
2023-01-10T10:22:23.941Z,99940.09
2023-01-10T10:25:09.260Z,99944.44
2023-01-10T10:27:57.451Z,99940.06
2023-01-10T10:30:31.067Z,99947.13
2023-01-10T10:33:00.720Z,99944.50
2023-01-10T10:35:38.889Z,99924.50
2023-01-10T10:38:26.510Z,99959.25
2023-01-10T10:40:54.391Z,99947.97
2023-01-10T10:43:23.674Z,99960.22
2023-01-10T10:45:53.452Z,99957.56
2023-01-10T10:48:20.207Z,99958.47
2023-01-10T10:50:56.308Z,99950.59
2023-01-10T10:53:23.133Z,99965.38
2023-01-10T10:55:50.922Z,99955.75
2023-01-10T10:58:20.764Z,99975.84
2023-01-10T11:00:48.240Z,99976.75
2023-01-10T11:03:34.010Z,99961.94
2023-01-10T11:06:01.479Z,99968.00
2023-01-10T11:08:29.832Z,99979.22
2023-01-10T11:10:57.830Z,99960.22
2023-01-10T11:13:30.446Z,99981.97
2023-01-10T11:15:59.376Z,99984.53
2023-01-10T11:18:28.043Z,99987.09
2023-01-10T11:21:03.957Z,99993.31
2023-01-10T11:23:45.202Z,100001.12
2023-01-10T11:26:27.923Z,100005.44
2023-01-10T11:29:06.483Z,100000.16
2023-01-10T11:31:33.551Z,100018.53
2023-01-10T11:34:01.837Z,100007.97
2023-01-10T11:36:28.704Z,100024.56
2023-01-10T11:39:03.624Z,100033.22
2023-01-10T11:41:34.813Z,100031.53
2023-01-10T11:44:18.660Z,100038.47
2023-01-10T11:46:46.377Z,100033.28
2023-01-10T11:49:19.814Z,100029.00
2023-01-10T11:51:53.417Z,100024.56
2023-01-10T11:54:22.044Z,100031.53
2023-01-10T11:56:55.055Z,100038.47
2023-01-10T11:59:21.936Z,100046.34
2023-01-10T12:01:54.181Z,100042.84
2023-01-10T12:04:26.254Z,100066.53
2023-01-10T12:06:56.108Z,100053.34
2023-01-10T12:09:42.554Z,100057.72
2023-01-10T12:12:18.060Z,100059.47
2023-01-10T12:14:48.145Z,100066.31
2023-01-10T12:17:24.228Z,100067.25
2023-01-10T12:19:55.757Z,100070.84
2023-01-10T12:22:25.618Z,100073.38
2023-01-10T12:24:53.538Z,100082.09
2023-01-10T12:27:21.644Z,100078.66
2023-01-10T12:29:55.857Z,100071.63
2023-01-10T12:32:28.622Z,100076.03
2023-01-10T12:35:01.649Z,100076.91
2023-01-10T12:37:28.437Z,100080.41
2023-01-10T12:39:59.299Z,100071.72
2023-01-10T12:42:57.617Z,100077.78
2023-01-10T12:45:29.692Z,100079.66
2023-01-10T12:48:03.012Z,100085.75
2023-01-10T12:50:54.060Z,100081.25
2023-01-10T12:53:23.989Z,100094.28
2023-01-10T12:55:53.796Z,100094.31
2023-01-10T12:58:23.362Z,100099.53
2023-01-10T13:00:55.160Z,100104.84
2023-01-10T13:03:25.355Z,100103.97
2023-01-10T13:05:53.357Z,100096.16
2023-01-10T13:08:23.299Z,100105.69
2023-01-10T13:10:51.566Z,100119.75
2023-01-10T13:13:34.620Z,100108.41
2023-01-10T13:16:19.876Z,100104.00
2023-01-10T13:19:01.019Z,100111.81
2023-01-10T13:21:28.305Z,100110.12
2023-01-10T13:23:59.844Z,100115.34
2023-01-10T13:26:26.887Z,100111.03
2023-01-10T13:28:53.620Z,100124.09
2023-01-10T13:31:40.907Z,100134.56
2023-01-10T13:34:10.618Z,100153.69
2023-01-10T13:36:39.168Z,100153.66
2023-01-10T13:39:09.187Z,100180.63
2023-01-10T13:42:14.895Z,100183.31
2023-01-10T13:45:00.036Z,100178.19
2023-01-10T13:47:57.354Z,100194.72
2023-01-10T13:50:24.224Z,100198.16
2023-01-10T13:52:51.034Z,100216.37
2023-01-10T13:55:28.886Z,100192.09
2023-01-10T13:57:57.006Z,100205.09
2023-01-10T14:00:48.233Z,100218.19
2023-01-10T14:03:33.686Z,100213.87
2023-01-10T14:06:03.217Z,100217.25
2023-01-10T14:08:33.362Z,100219.94
2023-01-10T14:11:07.803Z,100223.47
2023-01-10T14:13:37.019Z,100220.91
2023-01-10T14:16:05.150Z,100221.75
2023-01-10T14:18:41.815Z,100239.16
2023-01-10T14:21:09.989Z,100225.28
2023-01-10T14:23:39.074Z,100234.00
2023-01-10T14:26:07.993Z,100239.22
2023-01-10T14:28:36.007Z,100246.19
2023-01-10T14:31:12.826Z,100252.28
2023-01-10T14:33:42.648Z,100256.69
2023-01-10T14:36:30.100Z,100269.72
2023-01-10T14:39:04.934Z,100260.13
2023-01-10T14:41:34.880Z,100274.22
2023-01-10T14:44:03.610Z,100280.16
2023-01-10T14:46:34.415Z,100273.22
2023-01-10T14:49:01.359Z,100278.56
2023-01-10T14:51:29.385Z,100289.00
2023-01-10T14:53:57.872Z,100284.72
2023-01-10T14:56:27.278Z,100296.91
2023-01-10T14:58:56.661Z,100310.84
2023-01-10T15:01:25.637Z,100314.25
2023-01-10T15:03:53.650Z,100324.69
2023-01-10T15:06:29.580Z,100319.53
2023-01-10T15:09:00.539Z,100319.56
2023-01-10T15:11:48.659Z,100320.31
2023-01-10T15:14:26.524Z,100326.53
2023-01-10T15:16:55.736Z,100323.91
2023-01-10T15:19:23.288Z,100322.09
2023-01-10T15:21:50.796Z,100336.91
2023-01-10T15:24:43.678Z,100329.91
2023-01-10T15:27:16.564Z,100336.03
2023-01-10T15:29:47.008Z,100344.78
2023-01-10T15:32:29.203Z,100347.50
2023-01-10T15:34:57.554Z,100336.06
2023-01-10T15:37:28.214Z,100355.19
2023-01-10T15:39:55.454Z,100351.69
2023-01-10T15:42:23.009Z,100362.19
2023-01-10T15:44:52.947Z,100359.59
2023-01-10T15:47:45.885Z,100372.59
2023-01-10T15:50:29.776Z,100380.41
2023-01-10T15:52:58.519Z,100382.25
2023-01-10T15:55:34.335Z,100388.34
2023-01-10T15:58:01.779Z,100395.19
2023-01-10T16:00:30.259Z,100385.66
2023-01-10T16:02:57.999Z,100422.28
2023-01-10T16:05:26.790Z,100411.91
2023-01-10T16:07:53.520Z,100423.31
2023-01-10T16:10:27.937Z,100427.59
2023-01-10T16:13:27.627Z,100434.47
2023-01-10T16:15:59.756Z,100445.06
2023-01-10T16:18:27.384Z,100440.59
2023-01-10T16:20:58.657Z,100454.53
2023-01-10T16:23:35.361Z,100451.16
2023-01-10T16:26:04.549Z,100466.03
2023-01-10T16:28:36.251Z,100465.22
2023-01-10T16:31:06.349Z,100469.34
2023-01-10T16:33:35.453Z,100478.31
2023-01-10T16:36:05.899Z,100480.06
2023-01-10T16:38:32.687Z,100490.69
2023-01-10T16:41:00.877Z,100488.63
2023-01-10T16:43:29.420Z,100492.31
2023-01-10T16:46:03.948Z,100494.84
2023-01-10T16:48:32.019Z,100496.56
2023-01-10T16:51:27.260Z,100494.97
2023-01-10T16:53:54.049Z,100507.87
2023-01-10T16:56:24.052Z,100502.53
2023-01-10T16:58:52.118Z,100504.22
2023-01-10T17:01:26.685Z,100517.59
2023-01-10T17:04:12.908Z,100522.75
2023-01-10T17:06:41.637Z,100527.06
2023-01-10T17:09:22.605Z,100529.97
2023-01-10T17:12:07.249Z,100530.59
2023-01-10T17:14:39.127Z,100529.59
2023-01-10T17:17:06.004Z,100538.47
2023-01-10T17:19:32.986Z,100541.81
2023-01-10T17:22:00.599Z,100542.72
2023-01-10T17:24:29.807Z,100549.75
2023-01-10T17:26:56.587Z,100546.25
2023-01-10T17:29:23.554Z,100554.81
2023-01-10T17:31:50.447Z,100560.38
2023-01-10T17:34:17.203Z,100563.56
2023-01-10T17:36:43.963Z,100573.28
2023-01-10T17:39:11.619Z,100576.50
2023-01-10T17:41:38.468Z,100576.72
2023-01-10T17:44:05.336Z,100564.50
2023-01-10T17:46:32.270Z,100571.25
2023-01-10T17:48:59.023Z,100570.62
2023-01-10T17:51:25.785Z,100573.06
2023-01-10T17:53:54.941Z,100581.72
2023-01-10T17:56:22.205Z,100586.84
2023-01-10T17:58:51.884Z,100590.34
2023-01-10T18:01:22.253Z,100581.66
2023-01-10T18:03:51.797Z,100585.16
2023-01-10T18:06:24.039Z,100593.88
2023-01-10T18:08:51.554Z,100599.78
2023-01-10T18:11:18.305Z,100590.31
2023-01-10T18:13:45.188Z,100596.69
2023-01-10T18:16:11.936Z,100586.69
2023-01-10T18:18:39.243Z,100605.34
2023-01-10T18:21:12.176Z,100605.97
2023-01-10T18:23:38.965Z,100600.84
2023-01-10T18:26:06.646Z,100606.84
2023-01-10T18:28:41.706Z,100608.62
2023-01-10T18:31:10.657Z,100619.91
2023-01-10T18:33:37.475Z,100627.63
2023-01-10T18:36:04.936Z,100629.56
2023-01-10T18:38:35.618Z,100618.88
2023-01-10T18:41:02.424Z,100619.72
2023-01-10T18:43:30.086Z,100631.16
2023-01-10T18:46:07.861Z,100622.03
2023-01-10T18:48:34.654Z,100622.56
2023-01-10T18:51:02.845Z,100643.81
2023-01-10T18:53:30.037Z,100646.84
2023-01-10T18:55:57.783Z,100638.50
2023-01-10T18:58:25.631Z,100645.81
2023-01-10T19:00:52.486Z,100645.81
2023-01-10T19:03:19.388Z,100650.41
2023-01-10T19:05:46.249Z,100651.34
2023-01-10T19:08:16.398Z,100660.72
2023-01-10T19:11:07.108Z,100656.41
2023-01-10T19:13:30.630Z,100663.47
2023-01-10T19:16:18.046Z,100668.44
2023-01-10T19:18:48.385Z,100686.09
2023-01-10T19:21:15.940Z,100683.59
2023-01-10T19:23:43.525Z,100682.62
2023-01-10T19:26:10.845Z,100696.56
2023-01-10T19:28:37.593Z,100690.47
2023-01-10T19:31:05.491Z,100684.44
2023-01-10T19:33:37.547Z,100690.66
2023-01-10T19:36:05.356Z,100710.41
2023-01-10T19:38:32.097Z,100705.84
2023-01-10T19:40:58.864Z,100710.44
2023-01-10T19:43:26.137Z,100715.53
2023-01-10T19:45:54.137Z,100715.84
2023-01-10T19:48:21.834Z,100710.84
2023-01-10T19:50:48.589Z,100724.38
2023-01-10T19:53:15.672Z,100718.37
2023-01-10T19:55:42.486Z,100710.47
2023-01-10T19:58:09.203Z,100713.91
2023-01-10T20:00:35.937Z,100718.66
2023-01-10T20:03:05.234Z,100716.44
2023-01-10T20:05:34.024Z,100716.13
2023-01-10T20:08:02.165Z,100714.44
2023-01-10T20:10:29.045Z,100715.03
2023-01-10T20:12:55.836Z,100712.66
2023-01-10T20:15:22.603Z,100720.47
2023-01-10T20:17:49.363Z,100723.84
2023-01-10T20:20:19.743Z,100725.81
2023-01-10T20:22:47.336Z,100725.66
2023-01-10T20:25:14.105Z,100725.50
2023-01-10T20:27:40.977Z,100726.97
2023-01-10T20:30:09.054Z,100722.28
2023-01-10T20:32:35.760Z,100729.75
2023-01-10T20:35:02.505Z,100729.03
2023-01-10T20:37:29.274Z,100741.53
2023-01-10T20:39:55.988Z,100733.13
2023-01-10T20:42:22.819Z,100735.25
2023-01-10T20:44:49.583Z,100738.53
2023-01-10T20:47:16.988Z,100740.34
2023-01-10T20:49:43.766Z,100743.97
2023-01-10T20:52:10.555Z,100737.81
2023-01-10T20:54:38.943Z,100723.38
2023-01-10T20:57:05.698Z,100735.00
2023-01-10T20:59:33.940Z,100725.63
2023-01-10T21:02:01.342Z,100727.16
2023-01-10T21:04:29.033Z,100738.94
2023-01-10T21:06:55.818Z,100728.28
2023-01-10T21:09:22.673Z,100728.53
2023-01-10T21:12:01.983Z,100731.22
2023-01-10T21:14:33.995Z,100723.78
2023-01-10T21:17:00.787Z,100729.16
2023-01-10T21:19:27.662Z,100727.38
2023-01-10T21:21:54.446Z,100729.31
2023-01-10T21:24:23.089Z,100738.53
2023-01-10T21:26:50.053Z,100735.22
2023-01-10T21:29:16.834Z,100737.66
2023-01-10T21:31:43.633Z,100737.41
2023-01-10T21:34:10.459Z,100743.06
2023-01-10T21:36:37.248Z,100738.13
2023-01-10T21:39:04.070Z,100728.69
2023-01-10T21:41:49.497Z,100745.91
2023-01-10T21:44:16.216Z,100748.38
2023-01-10T21:46:44.848Z,100744.16
2023-01-10T21:49:11.734Z,100752.19
2023-01-10T21:51:38.543Z,100749.09
2023-01-10T21:54:05.349Z,100759.59
2023-01-10T21:56:32.291Z,100750.94
2023-01-10T21:58:59.013Z,100731.84
2023-01-10T22:01:25.774Z,100748.47
2023-01-10T22:03:52.537Z,100740.34
2023-01-10T22:06:19.390Z,100743.09
2023-01-10T22:08:46.145Z,100748.91
2023-01-10T22:11:12.852Z,100747.31
2023-01-10T22:13:39.629Z,100751.81
2023-01-10T22:16:07.230Z,100746.69
2023-01-10T22:18:34.062Z,100749.28
2023-01-10T22:21:00.790Z,100743.06
2023-01-10T22:23:28.984Z,100744.91
2023-01-10T22:26:02.583Z,100742.66
2023-01-10T22:28:29.383Z,100746.22
2023-01-10T22:30:56.216Z,100741.56
2023-01-10T22:33:23.240Z,100756.25
2023-01-10T22:35:49.973Z,100740.25
2023-01-10T22:38:16.931Z,100741.84
2023-01-10T22:40:43.661Z,100741.47
2023-01-10T22:43:10.550Z,100740.97
2023-01-10T22:45:40.470Z,100743.53
2023-01-10T22:48:07.209Z,100745.53
2023-01-10T22:50:33.921Z,100750.38
2023-01-10T22:53:01.180Z,100752.78
2023-01-10T22:55:27.981Z,100735.91
2023-01-10T22:57:54.700Z,100742.66
2023-01-10T23:00:21.499Z,100733.28
2023-01-10T23:02:48.224Z,100731.00
2023-01-10T23:05:15.122Z,100730.28
2023-01-10T23:07:41.771Z,100725.06
2023-01-10T23:10:24.329Z,100725.16
2023-01-10T23:12:55.400Z,100721.69
2023-01-10T23:15:22.019Z,100714.53
2023-01-10T23:17:48.659Z,100719.53
2023-01-10T23:20:16.608Z,100727.56
2023-01-10T23:22:43.462Z,100709.75
2023-01-10T23:25:10.115Z,100728.03
2023-01-10T23:27:38.543Z,100723.81
2023-01-10T23:30:09.310Z,100727.81
2023-01-10T23:32:36.078Z,100726.69
2023-01-10T23:35:03.091Z,100727.75
2023-01-10T23:37:29.731Z,100729.03
2023-01-10T23:39:56.368Z,100722.69
2023-01-10T23:42:23.029Z,100715.84
2023-01-10T23:44:49.876Z,100719.28
2023-01-10T23:47:16.466Z,100723.09
2023-01-10T23:49:43.086Z,100733.59
2023-01-10T23:52:09.719Z,100730.66
2023-01-10T23:54:36.688Z,100725.28
2023-01-10T23:57:03.283Z,100730.94
2023-01-10T23:59:29.957Z,100729.91
